createdAt,value
2023-05-27T00:00:37.673Z,97736.44
2023-05-27T00:03:04.353Z,97742.72
2023-05-27T00:05:30.996Z,97736.09
2023-05-27T00:07:57.583Z,97737.06
2023-05-27T00:10:24.193Z,97741.53
2023-05-27T00:12:50.712Z,97733.22
2023-05-27T00:15:18.665Z,97729.09
2023-05-27T00:17:45.265Z,97732.13
2023-05-27T00:20:14.006Z,97733.09
2023-05-27T00:22:41.682Z,97730.44
2023-05-27T00:25:08.855Z,97729.72
2023-05-27T00:27:35.939Z,97732.97
2023-05-27T00:30:03.865Z,97731.88
2023-05-27T00:32:30.518Z,97728.88
2023-05-27T00:34:57.082Z,97737.41
2023-05-27T00:37:23.773Z,97732.81
2023-05-27T00:39:50.427Z,97741.63
2023-05-27T00:42:21.069Z,97733.78
2023-05-27T00:44:47.633Z,97733.31
2023-05-27T00:47:17.020Z,97734.66
2023-05-27T00:49:44.195Z,97732.38
2023-05-27T00:52:10.826Z,97734.66
2023-05-27T00:54:37.668Z,97729.75
2023-05-27T00:57:04.553Z,97725.78
2023-05-27T00:59:31.355Z,97720.94
2023-05-27T01:01:57.944Z,97724.94
2023-05-27T01:04:26.253Z,97730.59
2023-05-27T01:07:15.750Z,97731.94
2023-05-27T01:10:07.105Z,97732.25
2023-05-27T01:12:56.336Z,97729.84
2023-05-27T01:15:24.688Z,97726.34
2023-05-27T01:17:55.704Z,97728.16
2023-05-27T01:20:22.540Z,97732.25
2023-05-27T01:22:53.307Z,97725.53
2023-05-27T01:25:23.012Z,97731.47
2023-05-27T01:27:49.843Z,97720.72
2023-05-27T01:30:16.654Z,97723.25
2023-05-27T01:33:18.946Z,97718.19
2023-05-27T01:35:59.241Z,97713.97
2023-05-27T01:38:28.914Z,97708.16
2023-05-27T01:40:56.601Z,97714.53
2023-05-27T01:43:23.691Z,97712.59
2023-05-27T01:45:50.722Z,97707.63
2023-05-27T01:48:17.627Z,97702.22
2023-05-27T01:50:44.163Z,97697.50
2023-05-27T01:53:11.584Z,97704.34
2023-05-27T01:55:38.191Z,97700.25
2023-05-27T01:58:04.858Z,97704.00
2023-05-27T02:00:31.417Z,97704.25
2023-05-27T02:02:58.044Z,97697.94
2023-05-27T02:05:24.778Z,97686.00
2023-05-27T02:07:51.380Z,97691.66
2023-05-27T02:10:18.007Z,97690.31
2023-05-27T02:12:44.502Z,97694.16
2023-05-27T02:15:11.386Z,97686.66
2023-05-27T02:17:38.966Z,97682.56
2023-05-27T02:20:06.536Z,97694.56
2023-05-27T02:22:33.131Z,97691.53
2023-05-27T02:24:59.672Z,97698.16
2023-05-27T02:27:26.194Z,97691.72
2023-05-27T02:29:52.951Z,97698.31
2023-05-27T02:32:19.508Z,97698.75
2023-05-27T02:34:46.092Z,97699.94
2023-05-27T02:37:12.647Z,97693.28
2023-05-27T02:39:39.977Z,97694.78
2023-05-27T02:42:07.437Z,97701.91
2023-05-27T02:44:34.000Z,97699.69
2023-05-27T02:47:00.677Z,97712.53
2023-05-27T02:49:27.214Z,97703.13
2023-05-27T02:51:53.718Z,97699.13
2023-05-27T02:54:20.397Z,97695.97
2023-05-27T02:56:46.983Z,97702.53
2023-05-27T02:59:13.534Z,97698.91
2023-05-27T03:01:40.146Z,97699.25
2023-05-27T03:04:06.846Z,97701.50
2023-05-27T03:06:33.583Z,97695.91
2023-05-27T03:09:00.856Z,97699.09
2023-05-27T03:11:27.478Z,97689.88
2023-05-27T03:13:54.018Z,97696.22
2023-05-27T03:16:20.710Z,97686.84
2023-05-27T03:18:47.421Z,97689.81
2023-05-27T03:21:14.093Z,97696.47
2023-05-27T03:23:40.764Z,97697.97
2023-05-27T03:26:07.391Z,97696.28
2023-05-27T03:28:33.956Z,97690.88
2023-05-27T03:31:00.527Z,97693.91
2023-05-27T03:33:27.140Z,97700.00
2023-05-27T03:35:53.700Z,97699.69
2023-05-27T03:38:20.290Z,97701.69
2023-05-27T03:40:46.841Z,97701.78
2023-05-27T03:43:13.432Z,97708.22
2023-05-27T03:45:40.031Z,97714.47
2023-05-27T03:48:06.675Z,97707.47
2023-05-27T03:50:34.649Z,97709.81
2023-05-27T03:53:01.346Z,97711.72
2023-05-27T03:55:28.084Z,97702.72
2023-05-27T03:57:54.670Z,97713.00
2023-05-27T04:00:21.577Z,97712.56
2023-05-27T04:02:48.417Z,97717.25
2023-05-27T04:05:17.628Z,97719.41
2023-05-27T04:07:44.179Z,97713.69
2023-05-27T04:10:11.174Z,97710.72
2023-05-27T04:12:37.717Z,97710.53
2023-05-27T04:15:04.598Z,97712.66
2023-05-27T04:17:31.280Z,97714.66
2023-05-27T04:19:57.925Z,97705.66
2023-05-27T04:22:24.458Z,97710.09
2023-05-27T04:24:54.107Z,97704.03
2023-05-27T04:27:20.619Z,97706.84
2023-05-27T04:29:48.637Z,97708.84
2023-05-27T04:32:15.250Z,97712.22
2023-05-27T04:34:42.434Z,97711.94
2023-05-27T04:37:11.558Z,97709.78
2023-05-27T04:39:41.970Z,97702.25
2023-05-27T04:42:10.027Z,97708.13
2023-05-27T04:44:36.529Z,97706.09
2023-05-27T04:47:03.108Z,97711.94
2023-05-27T04:49:29.749Z,97714.13
2023-05-27T04:51:56.349Z,97709.31
2023-05-27T04:54:23.571Z,97715.00
2023-05-27T04:56:52.943Z,97711.06
2023-05-27T04:59:22.587Z,97715.16
2023-05-27T05:02:07.809Z,97719.72
2023-05-27T05:04:34.370Z,97716.69
2023-05-27T05:07:01.048Z,97711.84
2023-05-27T05:09:27.954Z,97713.34
2023-05-27T05:11:54.472Z,97710.69
2023-05-27T05:14:20.995Z,97709.25
2023-05-27T05:16:48.223Z,97717.03
2023-05-27T05:19:14.852Z,97706.81
2023-05-27T05:21:41.414Z,97711.88
2023-05-27T05:24:08.114Z,97715.19
2023-05-27T05:26:34.734Z,97714.03
2023-05-27T05:29:01.254Z,97713.25
2023-05-27T05:31:28.200Z,97720.16
2023-05-27T05:33:54.744Z,97715.66
2023-05-27T05:36:22.153Z,97714.34
2023-05-27T05:38:48.741Z,97720.00
2023-05-27T05:41:15.420Z,97724.25
2023-05-27T05:43:41.979Z,97711.91
2023-05-27T05:46:08.649Z,97721.25
2023-05-27T05:48:35.272Z,97707.19
2023-05-27T05:51:02.145Z,97713.19
2023-05-27T05:53:30.268Z,97716.00
2023-05-27T05:55:56.805Z,97724.09
2023-05-27T05:58:23.497Z,97724.31
2023-05-27T06:00:50.273Z,97720.31
2023-05-27T06:03:17.009Z,97718.22
2023-05-27T06:05:43.676Z,97717.81
2023-05-27T06:08:10.429Z,97720.78
2023-05-27T06:10:37.035Z,97728.81
2023-05-27T06:13:04.126Z,97719.38
2023-05-27T06:15:31.803Z,97724.25
2023-05-27T06:17:58.438Z,97729.19
2023-05-27T06:20:25.113Z,97720.81
2023-05-27T06:22:51.703Z,97725.50
2023-05-27T06:25:18.291Z,97725.19
2023-05-27T06:27:44.832Z,97722.97
2023-05-27T06:30:11.784Z,97730.56
2023-05-27T06:32:38.329Z,97723.94
2023-05-27T06:35:05.444Z,97726.22
2023-05-27T06:37:31.999Z,97721.41
2023-05-27T06:39:58.534Z,97716.66
2023-05-27T06:42:25.091Z,97722.44
2023-05-27T06:44:51.840Z,97720.72
2023-05-27T06:47:18.588Z,97720.34
2023-05-27T06:49:45.191Z,97731.88
2023-05-27T06:52:14.015Z,97720.09
2023-05-27T06:54:41.518Z,97724.66
2023-05-27T06:57:08.085Z,97721.91
2023-05-27T06:59:35.201Z,97718.16
2023-05-27T07:02:01.891Z,97725.91
2023-05-27T07:04:28.602Z,97727.97
2023-05-27T07:06:55.242Z,97732.78
2023-05-27T07:09:22.016Z,97717.19
2023-05-27T07:11:48.640Z,97722.03
2023-05-27T07:14:15.717Z,97716.91
2023-05-27T07:16:42.618Z,97723.25
2023-05-27T07:19:09.286Z,97730.69
2023-05-27T07:21:35.882Z,97730.66
2023-05-27T07:24:05.013Z,97723.41
2023-05-27T07:26:32.281Z,97727.63
2023-05-27T07:29:01.147Z,97725.91
2023-05-27T07:31:28.891Z,97733.97
2023-05-27T07:33:55.531Z,97724.25
2023-05-27T07:36:22.230Z,97724.56
2023-05-27T07:38:48.822Z,97723.25
2023-05-27T07:41:15.482Z,97728.63
2023-05-27T07:43:42.239Z,97710.00
2023-05-27T07:46:08.804Z,97714.16
2023-05-27T07:48:35.427Z,97701.91
2023-05-27T07:51:02.122Z,97696.88
2023-05-27T07:53:28.707Z,97710.03
2023-05-27T07:55:55.227Z,97705.72
2023-05-27T07:58:21.814Z,97705.16
2023-05-27T08:00:48.664Z,97712.38
2023-05-27T08:03:15.777Z,97696.97
2023-05-27T08:05:42.970Z,97693.81
2023-05-27T08:08:09.640Z,97693.53
2023-05-27T08:10:36.283Z,97709.72
2023-05-27T08:13:02.921Z,97699.94
2023-05-27T08:15:29.442Z,97689.50
2023-05-27T08:17:56.274Z,97681.31
2023-05-27T08:20:23.173Z,97696.78
2023-05-27T08:22:49.764Z,97686.72
2023-05-27T08:25:17.442Z,97683.41
2023-05-27T08:27:55.126Z,97690.03
2023-05-27T08:30:22.257Z,97683.59
2023-05-27T08:32:50.328Z,97674.63
2023-05-27T08:35:19.637Z,97679.84
2023-05-27T08:37:46.235Z,97676.81
2023-05-27T08:40:15.791Z,97665.63
2023-05-27T08:42:42.706Z,97668.63
2023-05-27T08:45:12.946Z,97663.66
2023-05-27T08:47:40.245Z,97665.97
2023-05-27T08:50:08.396Z,97659.88
2023-05-27T08:52:48.148Z,97667.16
2023-05-27T08:55:20.744Z,97661.66
2023-05-27T08:57:52.363Z,97664.97
2023-05-27T09:00:20.165Z,97659.38
2023-05-27T09:02:47.414Z,97664.06
2023-05-27T09:05:15.079Z,97665.03
2023-05-27T09:07:41.846Z,97656.34
2023-05-27T09:10:08.780Z,97662.81
2023-05-27T09:12:36.798Z,97657.97
2023-05-27T09:15:06.822Z,97657.84
2023-05-27T09:17:33.385Z,97644.28
2023-05-27T09:20:00.090Z,97643.63
2023-05-27T09:22:30.038Z,97643.56
2023-05-27T09:24:57.385Z,97646.16
2023-05-27T09:27:32.063Z,97637.88
2023-05-27T09:30:07.820Z,97652.72
2023-05-27T09:32:34.745Z,97643.72
2023-05-27T09:35:02.981Z,97643.69
2023-05-27T09:37:35.336Z,97630.19
2023-05-27T09:40:09.357Z,97646.28
2023-05-27T09:42:44.841Z,97638.72
2023-05-27T09:45:20.357Z,97634.34
2023-05-27T09:47:54.890Z,97634.56
2023-05-27T09:50:22.834Z,97638.25
2023-05-27T09:53:05.138Z,97636.81
2023-05-27T09:55:36.977Z,97625.13
2023-05-27T09:58:04.014Z,97634.03
2023-05-27T10:00:31.613Z,97642.28
2023-05-27T10:03:01.500Z,97634.38
2023-05-27T10:05:29.200Z,97614.06
2023-05-27T10:10:25.717Z,97622.97
2023-05-27T10:12:55.070Z,97620.16
2023-05-27T10:15:28.465Z,97626.13
2023-05-27T10:18:00.531Z,97620.06
2023-05-27T10:20:38.874Z,97620.03
2023-05-27T10:23:22.458Z,97615.25
2023-05-27T10:25:49.339Z,97621.22
2023-05-27T10:28:33.910Z,97627.00
2023-05-27T10:31:11.550Z,97620.13
2023-05-27T10:33:49.087Z,97609.28
2023-05-27T10:36:17.687Z,97619.31
2023-05-27T10:38:55.243Z,97620.84
2023-05-27T10:41:23.542Z,97602.63
2023-05-27T10:44:01.013Z,97610.19
2023-05-27T10:46:28.001Z,97600.50
2023-05-27T10:48:54.898Z,97600.03
2023-05-27T10:51:32.692Z,97597.63
2023-05-27T10:54:23.311Z,97598.22
2023-05-27T10:56:53.293Z,97594.28
2023-05-27T10:59:24.283Z,97607.50
2023-05-27T11:01:54.947Z,97587.88
2023-05-27T11:04:22.800Z,97592.59
2023-05-27T11:07:04.368Z,97588.81
2023-05-27T11:09:32.424Z,97586.09
2023-05-27T11:12:06.481Z,97585.50
2023-05-27T11:14:33.134Z,97582.91
2023-05-27T11:16:59.728Z,97585.72
2023-05-27T11:19:26.835Z,97581.63
2023-05-27T11:21:53.367Z,97580.50
2023-05-27T11:24:21.298Z,97569.81
2023-05-27T11:26:48.795Z,97562.72
2023-05-27T11:29:15.984Z,97559.91
2023-05-27T11:31:48.270Z,97564.44
2023-05-27T11:34:15.988Z,97559.41
2023-05-27T11:36:46.494Z,97556.41
2023-05-27T11:39:19.599Z,97560.44
2023-05-27T11:41:56.395Z,97561.88
2023-05-27T11:44:26.439Z,97553.25
2023-05-27T11:47:03.167Z,97545.47
2023-05-27T11:49:29.910Z,97546.44
2023-05-27T11:51:57.906Z,97547.22
2023-05-27T11:54:29.300Z,97540.47
2023-05-27T11:56:57.337Z,97536.19
2023-05-27T11:59:24.867Z,97534.66
2023-05-27T12:01:52.521Z,97537.75
2023-05-27T12:04:19.141Z,97526.25
2023-05-27T12:06:46.937Z,97531.47
2023-05-27T12:09:13.689Z,97533.06
2023-05-27T12:11:40.271Z,97523.59
2023-05-27T12:14:06.930Z,97526.41
2023-05-27T12:16:33.673Z,97524.09
2023-05-27T12:19:01.006Z,97527.38
2023-05-27T12:21:27.853Z,97517.91
2023-05-27T12:23:56.048Z,97511.44
2023-05-27T12:26:23.296Z,97518.50
2023-05-27T12:28:49.975Z,97523.56
2023-05-27T12:31:17.321Z,97521.34
2023-05-27T12:33:43.961Z,97518.19
2023-05-27T12:36:12.089Z,97510.88
2023-05-27T12:38:38.666Z,97518.97
2023-05-27T12:41:05.347Z,97507.22
2023-05-27T12:43:31.886Z,97509.94
2023-05-27T12:45:59.062Z,97509.25
2023-05-27T12:48:25.652Z,97494.94
2023-05-27T12:50:52.444Z,97495.34
2023-05-27T12:53:18.951Z,97494.50
2023-05-27T12:55:46.047Z,97491.00
2023-05-27T12:58:12.744Z,97489.56
2023-05-27T13:00:39.418Z,97482.22
2023-05-27T13:03:06.033Z,97482.84
2023-05-27T13:05:32.903Z,97478.22
2023-05-27T13:08:05.645Z,97476.03
2023-05-27T13:10:32.457Z,97476.97
2023-05-27T13:13:01.096Z,97468.34
2023-05-27T13:15:28.160Z,97468.06
2023-05-27T13:17:55.414Z,97473.84
2023-05-27T13:20:24.934Z,97463.03
2023-05-27T13:22:52.164Z,97463.69
2023-05-27T13:25:18.923Z,97444.56
2023-05-27T13:27:48.601Z,97451.25
2023-05-27T13:30:15.866Z,97453.53
2023-05-27T13:32:44.050Z,97458.69
2023-05-27T13:35:12.386Z,97449.19
2023-05-27T13:37:42.872Z,97452.19
2023-05-27T13:40:10.475Z,97455.56
2023-05-27T13:42:37.874Z,97447.03
2023-05-27T13:45:05.098Z,97444.53
2023-05-27T13:47:32.071Z,97437.41
2023-05-27T13:49:58.758Z,97438.19
2023-05-27T13:52:25.368Z,97431.47
2023-05-27T13:54:51.873Z,97439.50
2023-05-27T13:57:18.445Z,97421.72
2023-05-27T13:59:44.985Z,97417.47
2023-05-27T14:02:11.603Z,97427.53
2023-05-27T14:04:38.135Z,97421.97
2023-05-27T14:07:04.924Z,97423.63
2023-05-27T14:09:31.423Z,97415.97
2023-05-27T14:11:58.774Z,97412.72
2023-05-27T14:14:25.339Z,97420.41
2023-05-27T14:16:51.969Z,97404.16
2023-05-27T14:19:18.753Z,97406.47
2023-05-27T14:21:46.372Z,97403.97
2023-05-27T14:24:16.521Z,97409.38
2023-05-27T14:26:44.677Z,97393.28
2023-05-27T14:29:11.655Z,97387.84
2023-05-27T14:31:38.369Z,97389.81
2023-05-27T14:34:05.066Z,97386.22
2023-05-27T14:36:31.637Z,97378.00
2023-05-27T14:38:58.202Z,97375.63
2023-05-27T14:41:24.805Z,97371.69
2023-05-27T14:43:55.233Z,97368.19
2023-05-27T14:46:22.672Z,97365.50
2023-05-27T14:48:49.370Z,97367.44
2023-05-27T14:51:16.586Z,97364.25
2023-05-27T14:53:43.152Z,97367.25
2023-05-27T14:56:09.700Z,97357.47
2023-05-27T14:58:36.498Z,97369.75
2023-05-27T15:01:03.414Z,97364.19
2023-05-27T15:03:31.226Z,97361.81
2023-05-27T15:05:59.410Z,97356.44
2023-05-27T15:08:26.348Z,97351.75
2023-05-27T15:10:53.052Z,97353.00
2023-05-27T15:13:20.724Z,97360.19
2023-05-27T15:15:47.678Z,97358.00
2023-05-27T15:18:14.468Z,97361.72
2023-05-27T15:20:41.339Z,97361.88
2023-05-27T15:23:07.974Z,97361.72
2023-05-27T15:25:34.688Z,97338.63
2023-05-27T15:28:01.242Z,97340.13
2023-05-27T15:30:27.966Z,97349.31
2023-05-27T15:32:54.661Z,97348.63
2023-05-27T15:35:21.544Z,97343.41
2023-05-27T15:37:48.251Z,97350.16
2023-05-27T15:40:14.875Z,97340.81
2023-05-27T15:42:41.461Z,97339.00
2023-05-27T15:45:08.714Z,97340.00
2023-05-27T15:47:35.674Z,97340.16
2023-05-27T15:50:03.854Z,97338.81
2023-05-27T15:52:30.827Z,97336.50
2023-05-27T15:54:57.444Z,97331.63
2023-05-27T15:57:24.421Z,97331.28
2023-05-27T15:59:51.576Z,97334.31
2023-05-27T16:02:18.271Z,97332.13
2023-05-27T16:04:45.177Z,97334.47
2023-05-27T16:07:11.800Z,97327.97
2023-05-27T16:09:39.139Z,97327.28
2023-05-27T16:12:06.222Z,97311.56
2023-05-27T16:14:32.936Z,97315.59
2023-05-27T16:16:59.700Z,97315.78
2023-05-27T16:19:27.089Z,97310.59
2023-05-27T16:21:53.644Z,97307.41
2023-05-27T16:24:20.404Z,97304.91
2023-05-27T16:26:46.940Z,97306.91
2023-05-27T16:29:13.487Z,97296.19
2023-05-27T16:31:40.094Z,97301.38
2023-05-27T16:34:08.146Z,97289.31
2023-05-27T16:36:34.772Z,97302.72
2023-05-27T16:39:01.281Z,97303.91
2023-05-27T16:41:27.996Z,97292.69
2023-05-27T16:43:54.924Z,97303.75
2023-05-27T16:46:21.606Z,97300.56
2023-05-27T16:48:49.002Z,97295.38
2023-05-27T16:51:15.847Z,97305.44
2023-05-27T16:53:42.493Z,97300.56
2023-05-27T16:56:09.622Z,97297.38
2023-05-27T16:58:36.176Z,97294.03
2023-05-27T17:01:03.234Z,97293.72
2023-05-27T17:03:30.496Z,97292.22
2023-05-27T17:05:58.141Z,97287.03
2023-05-27T17:08:25.454Z,97286.50
2023-05-27T17:10:52.484Z,97285.00
2023-05-27T17:13:19.933Z,97280.31
2023-05-27T17:15:47.056Z,97287.69
2023-05-27T17:18:13.875Z,97278.16
2023-05-27T17:20:40.510Z,97279.50
2023-05-27T17:23:07.054Z,97279.81
2023-05-27T17:25:33.631Z,97269.81
2023-05-27T17:28:00.280Z,97275.34
2023-05-27T17:30:26.921Z,97272.97
2023-05-27T17:32:53.511Z,97279.66
2023-05-27T17:35:20.601Z,97274.81
2023-05-27T17:37:47.262Z,97266.47
2023-05-27T17:40:13.841Z,97274.97
2023-05-27T17:42:40.569Z,97275.63
2023-05-27T17:45:07.656Z,97278.63
2023-05-27T17:47:34.306Z,97278.47
2023-05-27T17:50:00.901Z,97286.66
2023-05-27T17:52:29.712Z,97280.09
2023-05-27T17:54:56.292Z,97275.75
2023-05-27T17:57:22.935Z,97282.25
2023-05-27T17:59:49.850Z,97274.88
2023-05-27T18:02:17.898Z,97272.66
2023-05-27T18:04:44.769Z,97274.84
2023-05-27T18:07:11.522Z,97274.34
2023-05-27T18:09:40.813Z,97281.00
2023-05-27T18:12:10.885Z,97286.47
2023-05-27T18:14:37.411Z,97286.13
2023-05-27T18:17:06.148Z,97286.94
2023-05-27T18:19:33.411Z,97289.91
2023-05-27T18:22:00.039Z,97280.88
2023-05-27T18:24:26.637Z,97290.69
2023-05-27T18:26:54.005Z,97295.66
2023-05-27T18:29:20.613Z,97296.56
2023-05-27T18:31:47.183Z,97294.84
2023-05-27T18:34:15.340Z,97302.00
2023-05-27T18:36:42.189Z,97301.91
2023-05-27T18:39:08.867Z,97301.69
2023-05-27T18:41:35.567Z,97306.16
2023-05-27T18:44:02.240Z,97301.88
2023-05-27T18:46:28.834Z,97295.81
2023-05-27T18:48:55.561Z,97296.38
2023-05-27T18:51:22.826Z,97296.59
2023-05-27T18:53:49.699Z,97296.47
2023-05-27T18:56:16.479Z,97292.22
2023-05-27T18:58:43.132Z,97307.59
2023-05-27T19:01:09.743Z,97300.50
2023-05-27T19:03:36.435Z,97301.22
2023-05-27T19:06:03.358Z,97302.72
2023-05-27T19:08:29.885Z,97303.91
2023-05-27T19:10:56.599Z,97307.88
2023-05-27T19:13:23.392Z,97311.84
2023-05-27T19:15:50.013Z,97315.50
2023-05-27T19:18:17.149Z,97315.81
2023-05-27T19:20:44.009Z,97317.50
2023-05-27T19:23:10.889Z,97307.59
2023-05-27T19:25:37.540Z,97312.25
2023-05-27T19:28:04.512Z,97316.56
2023-05-27T19:30:31.097Z,97318.97
2023-05-27T19:32:57.996Z,97318.94
2023-05-27T19:35:24.744Z,97326.38
2023-05-27T19:37:51.446Z,97324.56
2023-05-27T19:40:18.097Z,97335.44
2023-05-27T19:42:44.634Z,97335.03
2023-05-27T19:45:11.515Z,97335.28
2023-05-27T19:47:38.233Z,97327.13
2023-05-27T19:50:05.625Z,97326.41
2023-05-27T19:52:32.179Z,97336.03
2023-05-27T19:55:00.968Z,97331.78
2023-05-27T19:57:28.087Z,97330.06
2023-05-27T19:59:54.684Z,97333.97
2023-05-27T20:02:21.282Z,97328.38
2023-05-27T20:04:47.816Z,97330.72
2023-05-27T20:07:14.383Z,97339.19
2023-05-27T20:09:41.084Z,97328.53
2023-05-27T20:12:07.990Z,97323.88
2023-05-27T20:14:34.610Z,97327.50
2023-05-27T20:17:01.238Z,97331.41
2023-05-27T20:19:27.867Z,97325.06
2023-05-27T20:21:54.392Z,97334.34
2023-05-27T20:24:20.956Z,97335.44
2023-05-27T20:26:47.504Z,97336.81
2023-05-27T20:29:14.094Z,97334.66
2023-05-27T20:31:40.815Z,97335.31
2023-05-27T20:34:07.970Z,97330.22
2023-05-27T20:36:34.864Z,97338.41
2023-05-27T20:39:01.401Z,97326.19
2023-05-27T20:41:28.116Z,97336.81
2023-05-27T20:43:59.989Z,97336.34
2023-05-27T20:46:28.211Z,97336.41
2023-05-27T20:48:56.545Z,97341.34
2023-05-27T20:51:24.467Z,97344.75
2023-05-27T20:53:52.499Z,97339.81
2023-05-27T20:56:19.228Z,97344.50
2023-05-27T20:58:46.506Z,97338.16
2023-05-27T21:01:13.097Z,97341.03
2023-05-27T21:03:40.014Z,97339.13
2023-05-27T21:06:07.104Z,97344.28
2023-05-27T21:08:33.662Z,97349.34
2023-05-27T21:11:00.265Z,97346.34
2023-05-27T21:13:26.890Z,97345.25
2023-05-27T21:15:53.413Z,97346.78
2023-05-27T21:18:19.970Z,97350.06
2023-05-27T21:20:46.714Z,97348.09
2023-05-27T21:23:13.431Z,97348.81
2023-05-27T21:25:40.980Z,97342.19
2023-05-27T21:28:07.505Z,97341.56
2023-05-27T21:30:34.071Z,97345.09
2023-05-27T21:33:01.118Z,97344.00
2023-05-27T21:35:27.825Z,97342.94
2023-05-27T21:37:54.380Z,97344.34
2023-05-27T21:40:21.598Z,97346.78
2023-05-27T21:42:48.243Z,97336.28
2023-05-27T21:45:14.793Z,97340.13
2023-05-27T21:47:41.466Z,97340.50
2023-05-27T21:50:08.435Z,97336.63
2023-05-27T21:52:35.025Z,97332.63
2023-05-27T21:55:01.671Z,97333.47
2023-05-27T21:57:28.276Z,97325.03
2023-05-27T21:59:57.018Z,97324.84
2023-05-27T22:02:24.242Z,97327.09
2023-05-27T22:04:51.002Z,97321.44
2023-05-27T22:07:17.632Z,97328.63
2023-05-27T22:09:45.199Z,97317.03
2023-05-27T22:12:13.510Z,97319.81
2023-05-27T22:14:40.201Z,97314.41
2023-05-27T22:17:07.848Z,97313.91
2023-05-27T22:19:34.756Z,97311.63
2023-05-27T22:22:01.420Z,97307.28
2023-05-27T22:24:28.043Z,97301.31
2023-05-27T22:26:54.913Z,97303.63
2023-05-27T22:29:22.034Z,97302.44
2023-05-27T22:31:48.683Z,97303.38
2023-05-27T22:34:15.390Z,97301.69
2023-05-27T22:36:41.994Z,97298.59
2023-05-27T22:39:10.187Z,97298.34
2023-05-27T22:41:37.215Z,97295.00
2023-05-27T22:44:04.028Z,97293.09
2023-05-27T22:46:31.775Z,97282.19
2023-05-27T22:48:58.389Z,97282.31
2023-05-27T22:51:26.524Z,97285.56
2023-05-27T22:53:53.117Z,97284.50
2023-05-27T22:56:19.895Z,97276.91
2023-05-27T22:58:46.443Z,97279.22
2023-05-27T23:01:13.105Z,97276.56
2023-05-27T23:03:39.910Z,97278.72
2023-05-27T23:06:06.828Z,97276.44
2023-05-27T23:08:33.371Z,97274.41
2023-05-27T23:10:59.889Z,97278.00
2023-05-27T23:13:26.454Z,97274.03
2023-05-27T23:15:53.915Z,97266.47
2023-05-27T23:18:20.855Z,97266.22
2023-05-27T23:20:47.630Z,97267.53
2023-05-27T23:23:14.354Z,97260.56
2023-05-27T23:25:40.949Z,97261.03
2023-05-27T23:28:07.688Z,97253.34
2023-05-27T23:30:34.278Z,97250.47
2023-05-27T23:33:01.025Z,97252.28
2023-05-27T23:35:27.633Z,97248.44
2023-05-27T23:37:54.485Z,97247.94
2023-05-27T23:40:21.165Z,97255.38
2023-05-27T23:42:49.237Z,97247.44
2023-05-27T23:45:16.346Z,97244.56
2023-05-27T23:47:42.941Z,97248.19
2023-05-27T23:50:10.236Z,97244.34
2023-05-27T23:52:36.821Z,97237.47
2023-05-27T23:55:04.099Z,97237.56
2023-05-27T23:57:30.887Z,97229.25
